createdAt,value
2023-05-01T00:01:46.897Z,100224.24
2023-05-01T00:04:15.093Z,100223.02
2023-05-01T00:06:43.487Z,100222.69
2023-05-01T00:09:11.924Z,100221.33
2023-05-01T00:11:39.907Z,100222.29
2023-05-01T00:14:08.010Z,100215.59
2023-05-01T00:16:36.695Z,100215.21
2023-05-01T00:19:05.172Z,100215.70
2023-05-01T00:21:33.209Z,100212.30
2023-05-01T00:24:02.343Z,100214.42
2023-05-01T00:26:31.641Z,100211.77
2023-05-01T00:28:59.880Z,100212.95
2023-05-01T00:31:27.898Z,100217.35
2023-05-01T00:33:56.420Z,100219.39
2023-05-01T00:36:24.546Z,100218.81
2023-05-01T00:38:52.684Z,100216.34
2023-05-01T00:41:21.370Z,100218.02
2023-05-01T00:43:49.444Z,100219.00
2023-05-01T00:46:19.291Z,100220.27
2023-05-01T00:48:47.625Z,100224.23
2023-05-01T00:51:15.966Z,100230.67
2023-05-01T00:53:44.882Z,100230.33
2023-05-01T00:56:14.351Z,100226.40
2023-05-01T00:58:42.560Z,100226.08
2023-05-01T01:01:10.768Z,100231.89
2023-05-01T01:03:38.899Z,100231.46
2023-05-01T01:06:17.381Z,100231.16
2023-05-01T01:09:10.071Z,100228.88
2023-05-01T01:11:58.743Z,100229.26
2023-05-01T01:14:36.716Z,100233.05
2023-05-01T01:17:27.074Z,100233.81
2023-05-01T01:20:20.169Z,100232.86
2023-05-01T01:23:01.581Z,100234.33
2023-05-01T01:26:01.379Z,100231.13
2023-05-01T01:29:00.729Z,100229.56
2023-05-01T01:31:41.937Z,100229.63
2023-05-01T01:34:13.119Z,100230.04
2023-05-01T01:36:49.483Z,100232.75
2023-05-01T01:39:42.426Z,100234.07
2023-05-01T01:42:18.466Z,100235.31
2023-05-01T01:44:56.679Z,100236.89
2023-05-01T01:47:28.537Z,100235.23
2023-05-01T01:49:58.801Z,100236.11
2023-05-01T01:52:29.015Z,100238.91
2023-05-01T01:55:09.904Z,100237.88
2023-05-01T01:57:39.808Z,100236.23
2023-05-01T02:00:28.837Z,100232.88
2023-05-01T02:03:01.177Z,100227.98
2023-05-01T02:05:32.004Z,100226.30
2023-05-01T02:08:00.971Z,100227.94
2023-05-01T02:10:30.141Z,100224.66
2023-05-01T02:13:00.320Z,100226.91
2023-05-01T02:15:30.463Z,100226.77
2023-05-01T02:18:02.401Z,100230.59
2023-05-01T02:20:31.055Z,100234.52
2023-05-01T02:23:00.111Z,100229.70
2023-05-01T02:25:33.750Z,100228.86
2023-05-01T02:28:14.442Z,100230.08
2023-05-01T02:30:42.399Z,100228.12
2023-05-01T02:33:10.985Z,100230.90
2023-05-01T02:35:44.047Z,100232.83
2023-05-01T02:38:13.434Z,100234.52
2023-05-01T02:40:47.295Z,100233.71
2023-05-01T02:43:20.204Z,100232.83
2023-05-01T02:45:51.670Z,100233.45
2023-05-01T02:48:27.928Z,100233.55
2023-05-01T02:50:57.355Z,100233.70
2023-05-01T02:53:25.508Z,100237.92
2023-05-01T02:55:57.203Z,100235.33
2023-05-01T02:58:25.271Z,100234.67
2023-05-01T03:00:53.370Z,100239.96
2023-05-01T03:03:21.890Z,100239.23
2023-05-01T03:05:49.994Z,100240.52
2023-05-01T03:08:17.920Z,100242.02
2023-05-01T03:10:45.980Z,100243.30
2023-05-01T03:13:17.045Z,100245.83
2023-05-01T03:15:45.228Z,100244.23
2023-05-01T03:18:13.426Z,100241.17
2023-05-01T03:20:51.366Z,100244.40
2023-05-01T03:23:19.974Z,100241.30
2023-05-01T03:25:48.063Z,100241.55
2023-05-01T03:28:16.867Z,100238.67
2023-05-01T03:30:45.009Z,100238.55
2023-05-01T03:33:13.292Z,100246.23
2023-05-01T03:35:41.512Z,100250.26
2023-05-01T03:38:10.310Z,100250.27
2023-05-01T03:41:10.873Z,100247.70
2023-05-01T03:43:44.760Z,100249.44
2023-05-01T03:46:21.960Z,100246.30
2023-05-01T03:48:50.150Z,100246.77
2023-05-01T03:51:18.766Z,100247.88
2023-05-01T03:53:48.308Z,100246.35
2023-05-01T03:56:16.479Z,100248.74
2023-05-01T03:58:45.939Z,100239.33
2023-05-01T04:01:15.374Z,100240.57
2023-05-01T04:03:46.158Z,100236.80
2023-05-01T04:06:14.507Z,100240.23
2023-05-01T04:08:43.688Z,100238.48
2023-05-01T04:11:12.892Z,100239.58
2023-05-01T04:13:41.101Z,100243.83
2023-05-01T04:16:09.874Z,100239.45
2023-05-01T04:18:37.962Z,100236.06
2023-05-01T04:21:05.990Z,100238.20
2023-05-01T04:23:38.637Z,100248.48
2023-05-01T04:26:06.752Z,100254.59
2023-05-01T04:28:35.264Z,100251.59
2023-05-01T04:31:05.200Z,100258.64
2023-05-01T04:33:33.241Z,100260.20
2023-05-01T04:36:01.413Z,100260.70
2023-05-01T04:38:31.309Z,100261.90
2023-05-01T04:41:00.125Z,100260.23
2023-05-01T04:43:28.132Z,100260.25
2023-05-01T04:45:56.586Z,100262.86
2023-05-01T04:48:24.757Z,100264.16
2023-05-01T04:50:52.953Z,100268.38
2023-05-01T04:53:21.796Z,100266.48
2023-05-01T04:55:50.461Z,100267.84
2023-05-01T04:58:19.475Z,100269.50
2023-05-01T05:00:50.533Z,100271.66
2023-05-01T05:03:22.233Z,100268.46
2023-05-01T05:05:50.548Z,100265.84
2023-05-01T05:08:18.902Z,100267.27
2023-05-01T05:10:58.174Z,100264.86
2023-05-01T05:14:01.632Z,100265.40
2023-05-01T05:16:30.999Z,100274.49
2023-05-01T05:19:00.677Z,100267.23
2023-05-01T05:21:29.296Z,100265.45
2023-05-01T05:23:58.703Z,100266.23
2023-05-01T05:26:28.424Z,100270.48
2023-05-01T05:28:58.379Z,100273.86
2023-05-01T05:31:26.380Z,100278.90
2023-05-01T05:33:54.693Z,100282.29
2023-05-01T05:36:27.791Z,100279.88
2023-05-01T05:38:56.143Z,100282.94
2023-05-01T05:41:24.755Z,100287.26
2023-05-01T05:43:55.586Z,100289.38
2023-05-01T05:46:26.517Z,100290.50
2023-05-01T05:48:54.790Z,100288.52
2023-05-01T05:51:24.645Z,100287.35
2023-05-01T05:53:52.994Z,100287.81
2023-05-01T05:56:26.348Z,100292.68
2023-05-01T05:58:58.759Z,100292.52
2023-05-01T06:01:28.047Z,100293.56
2023-05-01T06:03:57.206Z,100297.41
2023-05-01T06:06:27.759Z,100297.45
2023-05-01T06:08:59.520Z,100300.88
2023-05-01T06:11:27.874Z,100297.55
2023-05-01T06:13:57.465Z,100293.41
2023-05-01T06:16:26.101Z,100296.89
2023-05-01T06:18:54.419Z,100298.77
2023-05-01T06:21:22.949Z,100298.41
2023-05-01T06:23:51.198Z,100300.17
2023-05-01T06:26:35.894Z,100300.02
2023-05-01T06:29:04.160Z,100299.52
2023-05-01T06:31:36.680Z,100295.05
2023-05-01T06:34:05.657Z,100300.17
2023-05-01T06:36:43.126Z,100297.19
2023-05-01T06:39:11.468Z,100299.96
2023-05-01T06:41:40.804Z,100297.69
2023-05-01T06:44:08.928Z,100301.30
2023-05-01T06:46:41.787Z,100308.66
2023-05-01T06:49:09.903Z,100304.51
2023-05-01T06:51:38.178Z,100303.67
2023-05-01T06:54:08.916Z,100296.09
2023-05-01T06:56:37.075Z,100297.52
2023-05-01T06:59:06.023Z,100295.08
2023-05-01T07:01:36.456Z,100294.16
2023-05-01T07:04:04.930Z,100289.98
2023-05-01T07:06:43.050Z,100285.38
2023-05-01T07:09:17.168Z,100289.97
2023-05-01T07:11:53.171Z,100290.48
2023-05-01T07:14:21.476Z,100291.32
2023-05-01T07:16:54.371Z,100293.98
2023-05-01T07:19:25.309Z,100294.01
2023-05-01T07:21:53.440Z,100293.48
2023-05-01T07:24:21.458Z,100293.80
2023-05-01T07:26:49.454Z,100291.04
2023-05-01T07:29:17.470Z,100291.53
2023-05-01T07:31:46.580Z,100292.11
2023-05-01T07:34:14.759Z,100293.40
2023-05-01T07:36:42.871Z,100296.66
2023-05-01T07:39:10.917Z,100302.13
2023-05-01T07:41:38.946Z,100299.81
2023-05-01T07:44:06.941Z,100299.26
2023-05-01T07:46:36.353Z,100295.96
2023-05-01T07:49:04.443Z,100297.29
2023-05-01T07:51:32.966Z,100299.41
2023-05-01T07:54:04.879Z,100298.48
2023-05-01T07:56:33.495Z,100287.98
2023-05-01T07:59:01.539Z,100288.45
2023-05-01T08:01:29.974Z,100287.23
2023-05-01T08:03:58.202Z,100287.46
2023-05-01T08:06:26.834Z,100287.38
2023-05-01T08:08:54.889Z,100289.98
2023-05-01T08:11:22.868Z,100289.55
2023-05-01T08:13:50.981Z,100281.80
2023-05-01T08:16:21.879Z,100276.70
2023-05-01T08:18:50.609Z,100278.92
2023-05-01T08:21:18.597Z,100277.31
2023-05-01T08:23:46.689Z,100279.14
2023-05-01T08:26:14.642Z,100282.94
2023-05-01T08:28:42.835Z,100282.58
2023-05-01T08:31:10.909Z,100285.71
2023-05-01T08:33:42.112Z,100286.52
2023-05-01T08:36:11.358Z,100288.89
2023-05-01T08:38:39.598Z,100293.65
2023-05-01T08:41:09.177Z,100291.55
2023-05-01T08:43:37.711Z,100291.27
2023-05-01T08:46:09.801Z,100292.61
2023-05-01T08:48:41.754Z,100290.41
2023-05-01T08:51:12.454Z,100288.73
2023-05-01T08:53:41.772Z,100290.65
2023-05-01T08:56:13.049Z,100288.59
2023-05-01T08:58:43.010Z,100293.74
2023-05-01T09:01:15.771Z,100291.45
2023-05-01T09:03:44.617Z,100289.59
2023-05-01T09:06:13.700Z,100288.55
2023-05-01T09:08:41.868Z,100289.11
2023-05-01T09:11:12.219Z,100286.27
2023-05-01T09:13:40.497Z,100284.32
2023-05-01T09:16:08.803Z,100283.00
2023-05-01T09:18:43.614Z,100282.06
2023-05-01T09:21:12.465Z,100285.72
2023-05-01T09:23:41.102Z,100285.15
2023-05-01T09:26:11.524Z,100283.83
2023-05-01T09:28:46.807Z,100283.29
2023-05-01T09:31:29.806Z,100279.52
2023-05-01T09:34:03.525Z,100279.02
2023-05-01T09:36:34.600Z,100280.10
2023-05-01T09:39:03.921Z,100280.42
2023-05-01T09:41:33.188Z,100279.98
2023-05-01T09:44:01.930Z,100279.42
2023-05-01T09:46:42.151Z,100276.98
2023-05-01T09:49:10.356Z,100270.56
2023-05-01T09:51:38.721Z,100271.66
2023-05-01T09:54:19.162Z,100271.04
2023-05-01T09:56:48.932Z,100270.05
2023-05-01T09:59:21.160Z,100271.58
2023-05-01T10:01:51.875Z,100269.33
2023-05-01T10:04:39.288Z,100262.67
2023-05-01T10:07:14.830Z,100260.71
2023-05-01T10:09:45.511Z,100259.29
2023-05-01T10:12:24.440Z,100260.93
2023-05-01T10:15:07.773Z,100259.38
2023-05-01T10:17:45.621Z,100256.77
2023-05-01T10:20:13.781Z,100260.33
2023-05-01T10:22:42.023Z,100262.55
2023-05-01T10:25:14.099Z,100267.31
2023-05-01T10:27:42.225Z,100267.18
2023-05-01T10:30:10.699Z,100269.34
2023-05-01T10:32:42.244Z,100269.16
2023-05-01T10:35:15.221Z,100269.55
2023-05-01T10:37:58.674Z,100276.30
2023-05-01T10:40:47.052Z,100271.80
2023-05-01T10:43:16.153Z,100266.67
2023-05-01T10:45:46.262Z,100264.15
2023-05-01T10:48:48.043Z,100258.79
2023-05-01T10:51:21.628Z,100258.16
2023-05-01T10:54:10.675Z,100259.24
2023-05-01T10:56:38.779Z,100261.70
2023-05-01T10:59:08.503Z,100253.38
2023-05-01T11:01:41.207Z,100254.79
2023-05-01T11:04:27.604Z,100256.30
2023-05-01T11:06:58.540Z,100259.81
2023-05-01T11:10:01.895Z,100257.58
2023-05-01T11:12:47.563Z,100256.17
2023-05-01T11:15:31.288Z,100252.59
2023-05-01T11:18:01.769Z,100251.20
2023-05-01T11:20:36.792Z,100256.94
2023-05-01T11:23:04.850Z,100247.97
2023-05-01T11:25:47.355Z,100246.71
2023-05-01T11:28:22.978Z,100245.21
2023-05-01T11:30:51.019Z,100241.80
2023-05-01T11:33:25.912Z,100233.72
2023-05-01T11:35:59.400Z,100233.23
2023-05-01T11:38:27.711Z,100227.98
2023-05-01T11:40:58.942Z,100231.98
2023-05-01T11:43:26.921Z,100226.38
2023-05-01T11:46:04.132Z,100225.10
2023-05-01T11:48:32.612Z,100220.85
2023-05-01T11:51:00.838Z,100222.42
2023-05-01T11:53:30.096Z,100221.61
2023-05-01T11:56:01.034Z,100216.75
2023-05-01T11:58:34.166Z,100217.46
2023-05-01T12:01:03.300Z,100215.39
2023-05-01T12:03:44.654Z,100213.92
2023-05-01T12:06:13.847Z,100216.34
2023-05-01T12:08:51.342Z,100212.27
2023-05-01T12:11:23.521Z,100213.11
2023-05-01T12:13:51.642Z,100215.27
2023-05-01T12:16:20.025Z,100216.20
2023-05-01T12:18:48.577Z,100211.85
2023-05-01T12:21:22.877Z,100207.98
2023-05-01T12:23:50.967Z,100204.41
2023-05-01T12:26:23.830Z,100198.64
2023-05-01T12:29:07.026Z,100199.29
2023-05-01T12:31:46.420Z,100197.79
2023-05-01T12:34:14.569Z,100199.39
2023-05-01T12:36:59.254Z,100199.52
2023-05-01T12:39:44.790Z,100201.83
2023-05-01T12:42:20.649Z,100198.66
2023-05-01T12:44:48.698Z,100195.48
2023-05-01T12:47:16.939Z,100195.02
2023-05-01T12:49:44.988Z,100188.63
2023-05-01T12:52:13.003Z,100186.75
2023-05-01T12:54:45.504Z,100184.82
2023-05-01T12:57:25.452Z,100184.07
2023-05-01T13:00:01.305Z,100183.80
2023-05-01T13:02:33.601Z,100182.41
2023-05-01T13:05:08.687Z,100181.83
2023-05-01T13:07:38.419Z,100181.95
2023-05-01T13:10:07.102Z,100178.63
2023-05-01T13:12:47.334Z,100170.46
2023-05-01T13:15:23.243Z,100179.39
2023-05-01T13:17:51.757Z,100176.59
2023-05-01T13:20:37.457Z,100173.72
2023-05-01T13:23:11.388Z,100172.66
2023-05-01T13:25:39.516Z,100170.47
2023-05-01T13:28:09.249Z,100170.86
2023-05-01T13:30:46.345Z,100168.70
2023-05-01T13:33:14.873Z,100167.45
2023-05-01T13:35:47.526Z,100167.45
2023-05-01T13:38:16.418Z,100164.21
2023-05-01T13:40:44.445Z,100164.39
2023-05-01T13:43:16.349Z,100169.46
2023-05-01T13:45:44.313Z,100167.16
2023-05-01T13:48:12.580Z,100164.33
2023-05-01T13:50:42.418Z,100163.93
2023-05-01T13:53:15.453Z,100163.40
2023-05-01T13:55:43.439Z,100165.02
2023-05-01T13:58:14.464Z,100164.52
2023-05-01T14:00:45.033Z,100165.30
2023-05-01T14:03:16.115Z,100163.20
2023-05-01T14:05:45.146Z,100160.70
2023-05-01T14:08:14.754Z,100160.27
2023-05-01T14:10:42.793Z,100160.77
2023-05-01T14:13:11.071Z,100159.52
2023-05-01T14:15:43.943Z,100159.51
2023-05-01T14:18:17.761Z,100156.10
2023-05-01T14:20:47.645Z,100155.59
2023-05-01T14:23:16.944Z,100152.65
2023-05-01T14:25:46.758Z,100154.66
2023-05-01T14:28:15.524Z,100150.17
2023-05-01T14:30:47.717Z,100148.69
2023-05-01T14:33:16.248Z,100149.51
2023-05-01T14:35:52.724Z,100148.79
2023-05-01T14:38:22.689Z,100142.36
2023-05-01T14:41:00.949Z,100141.75
2023-05-01T14:43:29.237Z,100137.64
2023-05-01T14:45:57.337Z,100141.56
2023-05-01T14:48:29.282Z,100142.29
2023-05-01T14:50:59.462Z,100142.14
2023-05-01T14:53:31.722Z,100140.02
2023-05-01T14:55:59.861Z,100138.03
2023-05-01T14:58:28.058Z,100140.20
2023-05-01T15:01:06.120Z,100138.95
2023-05-01T15:03:41.141Z,100138.12
2023-05-01T15:06:09.744Z,100136.17
2023-05-01T15:08:38.352Z,100138.54
2023-05-01T15:11:06.435Z,100134.23
2023-05-01T15:13:34.495Z,100134.38
2023-05-01T15:16:03.354Z,100134.08
2023-05-01T15:18:31.498Z,100136.65
2023-05-01T15:20:59.613Z,100136.58
2023-05-01T15:23:27.773Z,100136.84
2023-05-01T15:25:55.678Z,100136.73
2023-05-01T15:28:24.940Z,100138.09
2023-05-01T15:30:54.395Z,100141.02
2023-05-01T15:33:22.916Z,100140.49
2023-05-01T15:35:52.736Z,100137.44
2023-05-01T15:38:21.796Z,100138.16
2023-05-01T15:40:52.437Z,100134.90
2023-05-01T15:43:23.395Z,100136.32
2023-05-01T15:45:51.574Z,100134.14
2023-05-01T15:48:19.732Z,100126.40
2023-05-01T15:50:48.992Z,100126.05
2023-05-01T15:53:17.663Z,100132.10
2023-05-01T15:55:45.586Z,100130.96
2023-05-01T15:58:16.852Z,100130.40
2023-05-01T16:00:50.070Z,100127.96
2023-05-01T16:03:18.704Z,100124.48
2023-05-01T16:05:49.442Z,100123.52
2023-05-01T16:08:19.756Z,100122.55
2023-05-01T16:10:47.870Z,100120.20
2023-05-01T16:13:15.952Z,100120.84
2023-05-01T16:15:43.984Z,100114.98
2023-05-01T16:18:26.808Z,100119.86
2023-05-01T16:20:59.571Z,100118.84
2023-05-01T16:23:28.162Z,100119.11
2023-05-01T16:25:56.354Z,100117.20
2023-05-01T16:28:27.316Z,100120.59
2023-05-01T16:30:55.531Z,100115.14
2023-05-01T16:33:23.767Z,100117.20
2023-05-01T16:35:51.808Z,100117.13
2023-05-01T16:38:26.437Z,100113.70
2023-05-01T16:40:54.550Z,100116.63
2023-05-01T16:43:23.225Z,100116.92
2023-05-01T16:45:54.223Z,100116.74
2023-05-01T16:48:24.255Z,100118.38
2023-05-01T16:50:52.296Z,100120.08
2023-05-01T16:53:20.945Z,100117.86
2023-05-01T16:55:48.964Z,100120.52
2023-05-01T16:58:16.957Z,100120.55
2023-05-01T17:00:44.902Z,100122.85
2023-05-01T17:03:17.398Z,100119.86
2023-05-01T17:06:01.873Z,100116.95
2023-05-01T17:08:30.393Z,100120.67
2023-05-01T17:10:58.537Z,100124.55
2023-05-01T17:13:26.594Z,100126.59
2023-05-01T17:15:54.703Z,100127.19
2023-05-01T17:18:22.721Z,100127.49
2023-05-01T17:20:50.599Z,100126.75
2023-05-01T17:23:18.578Z,100125.81
2023-05-01T17:25:46.605Z,100128.95
2023-05-01T17:28:34.893Z,100129.98
2023-05-01T17:31:02.890Z,100131.30
2023-05-01T17:33:31.297Z,100129.56
2023-05-01T17:36:00.719Z,100128.80
2023-05-01T17:38:28.777Z,100127.80
2023-05-01T17:40:56.628Z,100128.90
2023-05-01T17:43:26.695Z,100132.89
2023-05-01T17:45:54.711Z,100137.13
2023-05-01T17:48:22.968Z,100137.77
2023-05-01T17:50:55.962Z,100139.67
2023-05-01T17:53:24.298Z,100140.76
2023-05-01T17:56:02.074Z,100142.72
2023-05-01T17:58:32.365Z,100144.30
2023-05-01T18:01:07.971Z,100144.73
2023-05-01T18:03:36.992Z,100145.47
2023-05-01T18:06:08.311Z,100147.17
2023-05-01T18:08:36.424Z,100153.95
2023-05-01T18:11:04.388Z,100154.63
2023-05-01T18:13:38.366Z,100157.16
2023-05-01T18:16:06.372Z,100157.11
2023-05-01T18:18:34.289Z,100151.78
2023-05-01T18:21:02.350Z,100149.43
2023-05-01T18:23:30.235Z,100152.61
2023-05-01T18:25:58.632Z,100153.52
2023-05-01T18:28:26.978Z,100153.64
2023-05-01T18:30:54.853Z,100157.17
2023-05-01T18:33:26.006Z,100162.63
2023-05-01T18:35:54.045Z,100166.08
2023-05-01T18:38:25.905Z,100168.52
2023-05-01T18:40:54.991Z,100171.27
2023-05-01T18:43:23.108Z,100174.71
2023-05-01T18:45:51.034Z,100172.92
2023-05-01T18:48:19.667Z,100174.04
2023-05-01T18:51:00.862Z,100174.70
2023-05-01T18:53:35.075Z,100182.17
2023-05-01T18:56:03.260Z,100180.80
2023-05-01T18:58:31.199Z,100181.77
2023-05-01T19:01:02.782Z,100179.00
2023-05-01T19:03:31.202Z,100178.15
2023-05-01T19:05:59.668Z,100183.39
2023-05-01T19:08:27.816Z,100189.06
2023-05-01T19:10:58.666Z,100189.81
2023-05-01T19:13:26.681Z,100187.02
2023-05-01T19:15:55.055Z,100190.52
2023-05-01T19:18:23.122Z,100189.70
2023-05-01T19:20:50.979Z,100187.91
2023-05-01T19:23:21.788Z,100185.31
2023-05-01T19:25:50.685Z,100186.52
2023-05-01T19:28:18.651Z,100191.97
2023-05-01T19:30:46.595Z,100194.19
2023-05-01T19:33:14.622Z,100198.95
2023-05-01T19:35:45.531Z,100192.61
2023-05-01T19:38:13.509Z,100190.74
2023-05-01T19:40:42.495Z,100194.61
2023-05-01T19:43:13.476Z,100192.25
2023-05-01T19:45:43.955Z,100191.11
2023-05-01T19:48:12.296Z,100185.97
2023-05-01T19:50:40.392Z,100184.82
2023-05-01T19:53:08.312Z,100183.33
2023-05-01T19:55:36.341Z,100186.00
2023-05-01T19:58:04.816Z,100184.42
2023-05-01T20:00:32.779Z,100182.61
2023-05-01T20:03:01.221Z,100182.95
2023-05-01T20:05:33.691Z,100181.91
2023-05-01T20:08:05.160Z,100183.04
2023-05-01T20:10:33.581Z,100180.65
2023-05-01T20:13:01.729Z,100181.63
2023-05-01T20:15:31.554Z,100180.36
2023-05-01T20:18:00.566Z,100180.84
2023-05-01T20:20:32.063Z,100177.09
2023-05-01T20:23:14.644Z,100175.34
2023-05-01T20:25:43.080Z,100173.67
2023-05-01T20:28:14.962Z,100174.86
2023-05-01T20:30:45.087Z,100173.74
2023-05-01T20:33:14.051Z,100177.10
2023-05-01T20:35:42.312Z,100178.77
2023-05-01T20:38:10.856Z,100183.79
2023-05-01T20:40:40.884Z,100182.58
2023-05-01T20:43:09.305Z,100182.58
2023-05-01T20:45:37.624Z,100186.15
2023-05-01T20:48:05.972Z,100186.40
2023-05-01T20:50:34.712Z,100185.14
2023-05-01T20:53:02.739Z,100186.10
2023-05-01T20:55:30.773Z,100188.79
2023-05-01T20:57:58.707Z,100191.20
2023-05-01T21:00:26.879Z,100191.10
2023-05-01T21:05:29.838Z,100193.40
2023-05-01T21:07:59.185Z,100196.33
2023-05-01T21:10:27.191Z,100195.04
2023-05-01T21:12:56.439Z,100192.16
2023-05-01T21:15:24.868Z,100191.26
2023-05-01T21:17:54.407Z,100191.70
2023-05-01T21:20:33.852Z,100188.83
2023-05-01T21:23:02.612Z,100191.56
2023-05-01T21:25:33.034Z,100190.58
2023-05-01T21:28:03.677Z,100190.70
2023-05-01T21:30:43.896Z,100188.92
2023-05-01T21:33:16.369Z,100191.84
2023-05-01T21:35:46.885Z,100189.99
2023-05-01T21:38:16.550Z,100191.34
2023-05-01T21:40:48.761Z,100192.65
2023-05-01T21:43:25.866Z,100191.03
2023-05-01T21:45:54.402Z,100190.05
2023-05-01T21:48:22.864Z,100192.33
2023-05-01T21:50:51.517Z,100196.41
2023-05-01T21:53:19.917Z,100196.47
2023-05-01T21:55:48.498Z,100198.40
2023-05-01T21:58:16.530Z,100198.77
2023-05-01T22:00:46.316Z,100198.42
2023-05-01T22:03:17.765Z,100198.26
2023-05-01T22:05:46.318Z,100194.66
2023-05-01T22:08:14.409Z,100192.88
2023-05-01T22:10:43.173Z,100193.64
2023-05-01T22:13:11.744Z,100193.30
2023-05-01T22:15:39.959Z,100189.25
2023-05-01T22:18:08.437Z,100195.98
2023-05-01T22:20:36.742Z,100195.58
2023-05-01T22:23:09.738Z,100199.39
2023-05-01T22:25:43.459Z,100204.53
2023-05-01T22:28:11.883Z,100204.04
2023-05-01T22:30:40.125Z,100202.73
2023-05-01T22:33:11.816Z,100202.95
2023-05-01T22:35:41.421Z,100204.12
2023-05-01T22:38:15.275Z,100207.13
2023-05-01T22:40:47.176Z,100206.47
2023-05-01T22:43:15.865Z,100208.20
2023-05-01T22:45:43.980Z,100209.59
2023-05-01T22:48:12.533Z,100213.59
2023-05-01T22:50:42.844Z,100214.83
2023-05-01T22:53:11.212Z,100217.50
2023-05-01T22:55:39.406Z,100214.60
2023-05-01T22:58:07.425Z,100212.65
2023-05-01T23:00:35.406Z,100215.39
2023-05-01T23:03:03.990Z,100217.24
2023-05-01T23:05:32.230Z,100217.63
2023-05-01T23:08:00.302Z,100220.00
2023-05-01T23:10:31.185Z,100215.52
2023-05-01T23:13:01.524Z,100214.66
2023-05-01T23:15:29.534Z,100215.55
2023-05-01T23:17:57.684Z,100213.98
2023-05-01T23:20:26.099Z,100212.71
2023-05-01T23:22:54.278Z,100212.92
2023-05-01T23:25:26.255Z,100215.86
2023-05-01T23:27:56.486Z,100217.30
2023-05-01T23:30:24.550Z,100214.69
2023-05-01T23:32:54.687Z,100215.64
2023-05-01T23:35:25.387Z,100223.83
2023-05-01T23:37:54.085Z,100221.27
2023-05-01T23:40:22.806Z,100219.52
2023-05-01T23:42:51.033Z,100215.80
2023-05-01T23:45:19.227Z,100223.82
2023-05-01T23:47:47.329Z,100226.98
2023-05-01T23:50:15.435Z,100223.17
2023-05-01T23:52:44.353Z,100223.61
2023-05-01T23:55:12.707Z,100229.05
2023-05-01T23:57:42.083Z,100228.21
